CST,Max TemperatureF,Mean TemperatureF,Min TemperatureF,Max Dew PointF,MeanDew PointF,Min DewpointF,Max Humidity, Mean Humidity, Min Humidity, Max Sea Level PressureIn, Mean Sea Level PressureIn, Min Sea Level PressureIn, Max VisibilityMiles, Mean VisibilityMiles, Min VisibilityMiles, Max Wind SpeedMPH, Mean Wind SpeedMPH, Max Gust SpeedMPH,PrecipitationIn, CloudCover, Events, WindDirDegrees
2014-1-1,11,6,2,6,3,-2,89,82,78,30.41,30.28,30.13,10,8,1,14,9,20,0.02,6,Snow,360
2014-1-2,8,2,-4,2,-2,-8,89,81,69,30.47,30.41,30.35,10,10,5,10,4,,0.00,0,Snow,343
2014-1-3,36,20,3,31,16,-2,83,78,72,30.34,29.87,29.56,10,10,10,20,13,29,0.00,1,,167
2014-1-4,38,22,7,32,16,1,93,79,71,30.26,29.98,29.61,10,10,10,31,11,39,0.00,2,,332
2014-1-5,9,0,-11,0,-8,-18,75,64,45,30.54,30.41,30.26,10,10,5,32,15,39,0.00,0,,329
2014-1-6,5,-4,-13,-8,-12,-19,82,69,52,30.50,30.42,30.26,10,10,4,20,9,25,0.00,1,,290
2014-1-7,26,12,-2,13,5,-7,82,70,55,30.24,30.12,30.02,10,10,10,8,3,,0.00,0,,80
2014-1-8,21,17,13,13,11,8,86,73,64,30.39,30.33,30.24,10,10,5,9,4,,0.03,4,Snow,61
2014-1-9,29,19,9,29,16,6,97,82,70,30.34,30.12,29.89,10,9,5,15,9,23,0.00,3,,151
2014-1-10,34,29,23,34,30,24,100,99,95,29.89,29.66,29.54,10,3,1,13,8,18,0.00,7,Rain-Snow,173
2014-1-11,48,36,23,32,26,20,100,76,39,29.81,29.73,29.62,10,10,7,20,9,23,0.00,1,,263
2014-1-12,53,45,37,34,31,28,75,62,42,29.67,29.56,29.46,10,10,10,17,10,22,0.00,1,Rain,232
2014-1-13,47,36,25,32,27,24,94,67,41,29.86,29.75,29.65,10,10,10,16,9,22,0.00,1,Rain,256
2014-1-14,46,30,13,35,19,8,89,60,35,30.24,30.03,29.64,10,10,10,38,20,48,0.00,2,,313
2014-1-15,39,21,4,31,15,2,90,70,50,30.24,30.01,29.73,10,10,10,16,7,22,0.00,1,,221
2014-1-16,46,31,16,32,18,2,71,54,41,30.10,29.87,29.71,10,10,7,40,21,54,0.00,3,,305
2014-1-17,34,22,9,18,6,-2,68,49,25,30.18,30.06,29.79,10,10,10,21,13,29,0.00,1,,279
2014-1-18,41,29,17,34,23,14,93,72,54,30.09,29.85,29.64,10,10,7,36,16,50,0.00,4,Rain,292
2014-1-19,67,43,19,28,23,16,95,53,19,29.99,29.81,29.67,10,10,10,28,8,33,0.00,0,,257
2014-1-20,48,26,2,32,17,-6,88,69,41,30.49,30.09,29.85,10,10,3,38,13,50,0.00,2,Snow,307
2014-1-21,29,12,-4,22,-5,-11,78,53,30,30.53,30.28,30.04,10,10,10,22,9,28,0.00,3,,233
2014-1-22,31,16,-1,21,8,-9,90,68,44,30.61,30.25,30.05,10,10,3,25,13,32,0.00,3,Snow,322
2014-1-23,17,5,-7,-4,-7,-12,81,59,36,30.82,30.68,30.41,10,10,10,15,10,22,0.00,0,,282
2014-1-24,52,32,11,39,19,-6,68,53,37,30.40,29.95,29.70,10,10,10,31,14,45,0.00,3,Rain,248
2014-1-25,45,37,29,36,26,14,90,68,43,30.09,29.87,29.54,10,10,10,24,15,33,0.00,5,Rain,296
2014-1-26,53,29,4,34,21,-8,76,56,30,30.32,29.78,29.51,10,10,10,39,20,54,0.00,2,,299
2014-1-27,11,4,-4,-5,-9,-12,78,57,36,30.49,30.43,30.32,10,10,10,21,10,25,0.00,0,,318
2014-1-28,20,6,-8,0,-7,-15,76,58,33,30.45,30.35,30.20,10,10,7,17,3,23,0.00,0,,286
2014-1-29,46,22,-3,16,6,-9,81,50,25,30.20,29.91,29.56,10,10,10,20,7,30,0.00,0,,179
2014-1-30,41,30,18,24,14,9,76,54,33,30.08,29.73,29.39,10,10,7,31,16,38,0.00,3,,306
2014-1-31,25,19,13,19,8,4,96,65,46,30.16,30.06,29.96,10,9,2,8,5,,0.01,4,Snow,54